Time;durP1;ratioP1;P1;durP2;ratioP2;P2;SDS_P1;SDS_P2;PMS_P1;PMS_P2;Temp;Humidity;BMP_temperature;BMP_pressure;BME280_temperature;BME280_humidity;BME280_pressure;Samples;Min_cycle;Max_cycle;Signal;HPM_P1;HPM_P2
2024/01/18 00:00:59;;;;;;;;;;;-4.80;79.70;;;;;;4166510;28;20482;-82
2024/01/18 00:03:00;;;;;;;;;;;-4.70;79.80;;;;;;4166262;28;20321;-83
2024/01/18 00:05:00;;;;;;;;;;;-4.90;79.60;;;;;;4174228;28;20201;-82
2024/01/18 00:07:01;;;;;;;;;;;-4.90;79.90;;;;;;4169868;28;20004;-82
2024/01/18 00:09:03;;;;;;;;;;;-4.80;79.70;;;;;;4190006;28;19936;-82
2024/01/18 00:11:05;;;;;;;;;;;-5.00;79.60;;;;;;4172915;28;19920;-83
2024/01/18 00:13:07;;;;;;;;;;;-5.10;79.50;;;;;;4152704;28;20259;-83
2024/01/18 00:15:08;;;;;;;;;;;-5.10;79.50;;;;;;4166994;28;20004;-81
2024/01/18 00:17:09;;;;;;;;;;;-5.10;79.40;;;;;;4166814;28;20548;-83
2024/01/18 00:19:10;;;;;;;;;;;-5.20;79.30;;;;;;4185393;28;19912;-83
2024/01/18 00:21:10;;;;;;;;;;;-5.20;79.30;;;;;;4167414;28;19921;-83
2024/01/18 00:23:11;;;;;;;;;;;-5.30;79.20;;;;;;4167350;28;20382;-82
2024/01/18 00:25:12;;;;;;;;;;;-5.30;79.20;;;;;;4167043;28;19913;-82
2024/01/18 00:27:14;;;;;;;;;;;-5.30;79.40;;;;;;4166159;28;20006;-82
2024/01/18 00:29:16;;;;;;;;;;;-5.30;79.50;;;;;;4154188;28;19913;-83
2024/01/18 00:31:22;;;;;;;;;;;-5.30;79.70;;;;;;4168243;28;20418;-82
2024/01/18 00:33:42;;;;;;;;;;;-5.40;79.80;;;;;;4170659;28;19962;-83
2024/01/18 00:36:00;;;;;;;;;;;-5.30;80.00;;;;;;4182392;28;19916;-83
2024/01/18 00:38:03;;;;;;;;;;;-5.30;80.10;;;;;;4166795;28;19955;-83
2024/01/18 00:40:24;;;;;;;;;;;-5.30;80.10;;;;;;4166845;28;19917;-83
2024/01/18 00:42:27;;;;;;;;;;;-5.30;80.30;;;;;;4169552;28;20687;-81
2024/01/18 00:44:47;;;;;;;;;;;-5.30;80.40;;;;;;4168048;28;19917;-81
2024/01/18 00:47:08;;;;;;;;;;;-5.30;80.40;;;;;;4166840;28;19917;-82
2024/01/18 00:49:28;;;;;;;;;;;-5.30;80.40;;;;;;4168424;28;19932;-82
2024/01/18 00:51:49;;;;;;;;;;;-5.30;80.40;;;;;;4165053;28;19931;-81
2024/01/18 00:54:09;;;;;;;;;;;-5.30;80.40;;;;;;4167875;28;19925;-82
2024/01/18 00:56:30;;;;;;;;;;;-5.30;80.40;;;;;;4164364;28;20402;-83
2024/01/18 00:58:50;;;;;;;;;;;-5.30;80.40;;;;;;4169638;28;19928;-82
2024/01/18 01:01:11;;;;;;;;;;;-5.30;80.40;;;;;;4166603;28;19971;-81
2024/01/18 01:03:31;;;;;;;;;;;-5.30;80.40;;;;;;4168746;28;19920;-83
2024/01/18 01:05:52;;;;;;;;;;;-5.40;80.30;;;;;;4166357;28;19916;-83
2024/01/18 01:08:12;;;;;;;;;;;-5.30;80.40;;;;;;4182580;28;19958;-82
2024/01/18 01:10:33;;;;;;;;;;;-5.40;80.40;;;;;;4173557;28;19917;-83
2024/01/18 01:12:53;;;;;;;;;;;-5.30;80.50;;;;;;4173900;28;20306;-81
2024/01/18 01:15:14;;;;;;;;;;;-5.30;80.60;;;;;;4183679;28;19912;-83
2024/01/18 01:17:35;;;;;;;;;;;-5.30;80.60;;;;;;4166694;28;19955;-82
2024/01/18 01:19:56;;;;;;;;;;;-5.40;80.50;;;;;;4166447;28;20353;-82
2024/01/18 01:22:16;;;;;;;;;;;-5.30;80.60;;;;;;4166323;28;20005;-81
2024/01/18 01:24:21;;;;;;;;;;;-5.30;80.60;;;;;;4157226;28;20095;-82
2024/01/18 01:26:31;;;;;;;;;;;-5.30;80.70;;;;;;4160484;28;19987;-82
2024/01/18 01:28:52;;;;;;;;;;;-5.30;80.70;;;;;;4168817;28;20006;-83
2024/01/18 01:31:12;;;;;;;;;;;-5.30;80.70;;;;;;4167812;28;19917;-82
2024/01/18 01:33:34;;;;;;;;;;;-5.30;80.80;;;;;;4173305;28;20024;-83
2024/01/18 01:35:54;;;;;;;;;;;-5.30;80.80;;;;;;4186791;28;19961;-82
2024/01/18 01:38:15;;;;;;;;;;;-5.30;80.80;;;;;;4163045;28;19996;-82
2024/01/18 01:40:35;;;;;;;;;;;-5.30;80.80;;;;;;4169347;28;19913;-82
2024/01/18 01:42:56;;;;;;;;;;;-5.30;80.80;;;;;;4163713;28;19917;-81
2024/01/18 01:45:16;;;;;;;;;;;-5.30;80.80;;;;;;4177752;28;20380;-82
2024/01/18 01:47:37;;;;;;;;;;;-5.20;81.00;;;;;;4169027;28;19913;-82
2024/01/18 01:49:58;;;;;;;;;;;-5.20;80.90;;;;;;4170176;28;19917;-82
2024/01/18 01:52:18;;;;;;;;;;;-5.20;80.90;;;;;;4169989;28;19999;-83
2024/01/18 01:54:39;;;;;;;;;;;-5.20;80.90;;;;;;4163515;28;19917;-82
2024/01/18 01:57:01;;;;;;;;;;;-5.20;80.90;;;;;;4170480;28;19932;-81
2024/01/18 01:59:23;;;;;;;;;;;-5.20;80.90;;;;;;4167594;28;19913;-83
2024/01/18 02:01:44;;;;;;;;;;;-5.30;80.80;;;;;;4164202;28;19929;-81
2024/01/18 02:04:05;;;;;;;;;;;-5.20;80.90;;;;;;4167439;28;19927;-83
2024/01/18 02:06:26;;;;;;;;;;;-5.20;80.90;;;;;;4171630;28;19920;-81
2024/01/18 02:08:46;;;;;;;;;;;-5.20;80.90;;;;;;4170078;28;20233;-83
2024/01/18 02:11:07;;;;;;;;;;;-5.20;81.00;;;;;;4171917;28;19914;-81
2024/01/18 02:13:28;;;;;;;;;;;-5.20;81.00;;;;;;4167234;28;19917;-83
2024/01/18 02:15:49;;;;;;;;;;;-5.20;81.00;;;;;;4164993;28;19916;-82
2024/01/18 02:18:10;;;;;;;;;;;-5.10;81.10;;;;;;4164878;28;20004;-82
2024/01/18 02:20:30;;;;;;;;;;;-5.20;81.10;;;;;;4166263;28;19941;-81
2024/01/18 02:22:51;;;;;;;;;;;-5.10;81.10;;;;;;4171441;28;19917;-82
2024/01/18 02:25:21;;;;;;;;;;;-5.10;81.10;;;;;;4169887;28;20066;-83
2024/01/18 02:27:42;;;;;;;;;;;-5.10;81.10;;;;;;4177339;28;19930;-84
2024/01/18 02:30:03;;;;;;;;;;;-5.10;81.10;;;;;;4175993;28;19924;-82
2024/01/18 02:32:23;;;;;;;;;;;-5.10;81.10;;;;;;4168561;28;19967;-82
2024/01/18 02:34:44;;;;;;;;;;;-5.10;81.10;;;;;;4172427;28;19943;-82
2024/01/18 02:37:05;;;;;;;;;;;-5.10;81.10;;;;;;4182373;28;19927;-82
2024/01/18 02:39:26;;;;;;;;;;;-5.10;81.00;;;;;;4183031;28;19986;-82
2024/01/18 02:41:46;;;;;;;;;;;-5.10;81.00;;;;;;4172919;28;19916;-83
2024/01/18 02:44:07;;;;;;;;;;;-5.10;80.90;;;;;;4170729;28;19914;-82
2024/01/18 02:46:32;;;;;;;;;;;-5.10;80.90;;;;;;4171153;28;19994;-81
2024/01/18 02:48:52;;;;;;;;;;;-5.10;80.90;;;;;;4171378;28;20009;-82
2024/01/18 02:51:13;;;;;;;;;;;-5.20;80.80;;;;;;4167213;28;19933;-83
2024/01/18 02:53:33;;;;;;;;;;;-5.20;80.80;;;;;;4178506;28;20353;-82
2024/01/18 02:55:53;;;;;;;;;;;-5.20;80.80;;;;;;4169510;28;19982;-82
2024/01/18 02:58:12;;;;;;;;;;;-5.20;80.80;;;;;;4189395;28;19955;-81
2024/01/18 03:00:31;;;;;;;;;;;-5.20;80.80;;;;;;4182859;28;20138;-82
2024/01/18 03:02:50;;;;;;;;;;;-5.20;81.50;;;;;;4179912;28;20012;-82
2024/01/18 03:05:10;;;;;;;;;;;-5.10;80.80;;;;;;4178190;28;20353;-82
2024/01/18 03:07:29;;;;;;;;;;;-5.20;80.70;;;;;;4176831;28;19923;-83
2024/01/18 03:09:48;;;;;;;;;;;-5.30;80.50;;;;;;4175865;28;19932;-82
2024/01/18 03:12:08;;;;;;;;;;;-5.30;81.20;;;;;;4177529;28;19920;-83
2024/01/18 03:14:27;;;;;;;;;;;-5.30;81.10;;;;;;4179658;28;19923;-82
2024/01/18 03:16:46;;;;;;;;;;;-5.40;80.30;;;;;;4186895;28;20494;-82
2024/01/18 03:19:06;;;;;;;;;;;-5.40;80.30;;;;;;4174045;28;19927;-82
2024/01/18 03:21:25;;;;;;;;;;;-5.50;80.20;;;;;;4171984;28;20482;-82
2024/01/18 03:23:44;;;;;;;;;;;-5.50;80.30;;;;;;4171912;28;19924;-83
2024/01/18 03:26:03;;;;;;;;;;;-5.50;80.20;;;;;;4172643;28;19924;-81
2024/01/18 03:28:22;;;;;;;;;;;-5.50;80.20;;;;;;4172702;28;19966;-82
2024/01/18 03:30:42;;;;;;;;;;;-5.50;80.20;;;;;;4171736;28;19928;-83
2024/01/18 03:33:01;;;;;;;;;;;-5.50;80.20;;;;;;4172350;28;19939;-83
2024/01/18 03:35:20;;;;;;;;;;;-5.60;81.00;;;;;;4169121;28;19931;-83
2024/01/18 03:37:39;;;;;;;;;;;-5.60;80.20;;;;;;4170303;28;19987;-84
2024/01/18 03:39:59;;;;;;;;;;;-5.60;80.30;;;;;;4174622;28;19931;-83
2024/01/18 03:42:18;;;;;;;;;;;-5.60;81.00;;;;;;4176100;28;19923;-82
2024/01/18 03:44:37;;;;;;;;;;;-5.60;80.40;;;;;;4172704;28;19920;-83
2024/01/18 03:46:57;;;;;;;;;;;-5.70;81.10;;;;;;4171133;28;20415;-82
2024/01/18 03:49:16;;;;;;;;;;;-5.50;80.60;;;;;;4170384;28;19927;-82
2024/01/18 03:51:35;;;;;;;;;;;-5.70;81.20;;;;;;4172807;28;19927;-83
2024/01/18 03:53:54;;;;;;;;;;;-5.70;80.40;;;;;;4170857;28;19932;-83
2024/01/18 03:56:14;;;;;;;;;;;-5.70;81.20;;;;;;4167022;28;19944;-83
2024/01/18 03:58:33;;;;;;;;;;;-5.70;81.30;;;;;;4186637;28;19941;-82
2024/01/18 04:00:52;;;;;;;;;;;-5.70;80.50;;;;;;4178385;28;19998;-83
2024/01/18 04:03:11;;;;;;;;;;;-5.70;80.50;;;;;;4175730;28;19928;-83
2024/01/18 04:05:31;;;;;;;;;;;-5.70;80.50;;;;;;4176470;28;19935;-81
2024/01/18 04:07:50;;;;;;;;;;;-5.70;80.50;;;;;;4175484;28;19994;-83
2024/01/18 04:10:10;;;;;;;;;;;-5.70;80.60;;;;;;4174148;28;20006;-83
2024/01/18 04:12:29;;;;;;;;;;;-5.70;81.30;;;;;;4189597;28;20302;-83
2024/01/18 04:14:48;;;;;;;;;;;-5.70;80.70;;;;;;4174796;28;20330;-83
2024/01/18 04:17:07;;;;;;;;;;;-5.80;80.60;;;;;;4173693;28;19927;-82
2024/01/18 04:19:27;;;;;;;;;;;-5.70;80.70;;;;;;4177304;28;20038;-82
2024/01/18 04:21:46;;;;;;;;;;;-5.70;80.70;;;;;;4178047;28;19924;-82
2024/01/18 04:24:06;;;;;;;;;;;-5.70;80.70;;;;;;4176131;28;19928;-83
2024/01/18 04:26:25;;;;;;;;;;;-5.60;81.50;;;;;;4173833;28;20124;-82
2024/01/18 04:28:44;;;;;;;;;;;-5.70;80.80;;;;;;4199919;28;19916;-82
2024/01/18 04:31:03;;;;;;;;;;;-5.70;81.50;;;;;;4172331;28;19925;-83
2024/01/18 04:33:23;;;;;;;;;;;-5.70;80.80;;;;;;4173383;28;20353;-81
2024/01/18 04:35:42;;;;;;;;;;;-5.70;80.80;;;;;;4174842;28;19971;-83
2024/01/18 04:38:01;;;;;;;;;;;-5.60;80.90;;;;;;4174094;28;20182;-84
2024/01/18 04:40:20;;;;;;;;;;;-5.70;80.80;;;;;;4178018;28;19954;-82
2024/01/18 04:42:40;;;;;;;;;;;-5.70;80.90;;;;;;4174967;28;20346;-82
2024/01/18 04:44:59;;;;;;;;;;;-5.70;80.90;;;;;;4174765;28;19974;-83
2024/01/18 04:47:19;;;;;;;;;;;-5.70;81.00;;;;;;4169100;28;19920;-81
2024/01/18 04:49:38;;;;;;;;;;;-5.60;81.00;;;;;;4169103;28;19932;-82
2024/01/18 04:51:59;;;;;;;;;;;-5.60;81.80;;;;;;4172487;28;19967;-83
2024/01/18 04:54:18;;;;;;;;;;;-5.60;81.80;;;;;;4173265;28;19966;-84
2024/01/18 04:56:37;;;;;;;;;;;-5.60;81.10;;;;;;4172273;28;19923;-82
2024/01/18 04:58:57;;;;;;;;;;;-5.60;81.70;;;;;;4173227;28;20003;-82
2024/01/18 05:01:17;;;;;;;;;;;-5.60;81.10;;;;;;4175555;28;19923;-81
2024/01/18 05:03:36;;;;;;;;;;;-5.60;81.00;;;;;;4172263;28;20034;-82
2024/01/18 05:05:56;;;;;;;;;;;-5.60;81.00;;;;;;4176624;28;20680;-82
2024/01/18 05:08:16;;;;;;;;;;;-5.60;81.00;;;;;;4185564;28;19974;-82
2024/01/18 05:10:54;;;;;;;;;;;-5.60;81.00;;;;;;4175794;28;19960;-81
2024/01/18 05:13:14;;;;;;;;;;;-5.60;81.00;;;;;;4174286;28;19920;-82
2024/01/18 05:15:33;;;;;;;;;;;-5.60;81.60;;;;;;4171369;28;19948;-81
2024/01/18 05:17:54;;;;;;;;;;;-5.60;80.90;;;;;;4170656;28;19974;-82
2024/01/18 05:20:15;;;;;;;;;;;-5.60;80.90;;;;;;4175777;28;19923;-82
2024/01/18 05:22:34;;;;;;;;;;;-5.60;80.80;;;;;;4171087;28;19928;-82
2024/01/18 05:24:53;;;;;;;;;;;-5.60;80.80;;;;;;4171812;28;19928;-82
2024/01/18 05:27:13;;;;;;;;;;;-5.70;80.70;;;;;;4172884;28;19936;-82
2024/01/18 05:29:33;;;;;;;;;;;-5.70;80.70;;;;;;4185887;28;19922;-82
2024/01/18 05:31:52;;;;;;;;;;;-5.70;80.70;;;;;;4173789;28;19919;-81
2024/01/18 05:34:12;;;;;;;;;;;-5.70;80.60;;;;;;4173978;28;19939;-82
2024/01/18 05:36:32;;;;;;;;;;;-5.70;80.70;;;;;;4162848;28;19996;-82
2024/01/18 05:38:51;;;;;;;;;;;-5.80;80.50;;;;;;4167093;28;20421;-81
2024/01/18 05:41:11;;;;;;;;;;;-5.80;81.30;;;;;;4168230;28;19927;-82
2024/01/18 05:43:30;;;;;;;;;;;-5.80;81.30;;;;;;4170699;28;20453;-82
2024/01/18 05:45:49;;;;;;;;;;;-5.80;81.30;;;;;;4166948;28;19921;-82
2024/01/18 05:48:09;;;;;;;;;;;-5.80;80.50;;;;;;4168051;28;19924;-82
2024/01/18 05:50:28;;;;;;;;;;;-5.80;80.50;;;;;;4187171;28;19941;-81
2024/01/18 05:52:47;;;;;;;;;;;-5.90;80.50;;;;;;4171580;28;20435;-83
2024/01/18 05:55:07;;;;;;;;;;;-5.90;80.60;;;;;;4172354;28;19923;-82
2024/01/18 05:57:26;;;;;;;;;;;-5.90;80.60;;;;;;4192229;28;19971;-82
2024/01/18 05:59:47;;;;;;;;;;;-5.90;80.60;;;;;;4173401;28;20664;-83
2024/01/18 06:02:09;;;;;;;;;;;-5.90;80.70;;;;;;4173353;28;19988;-81
2024/01/18 06:04:30;;;;;;;;;;;-5.90;81.40;;;;;;4172749;28;19923;-83
2024/01/18 06:06:49;;;;;;;;;;;-5.90;80.70;;;;;;4174161;28;19975;-82
2024/01/18 06:09:09;;;;;;;;;;;-5.90;80.70;;;;;;4170207;28;19920;-81
2024/01/18 06:11:28;;;;;;;;;;;-5.90;80.80;;;;;;4172018;28;19970;-82
2024/01/18 06:13:47;;;;;;;;;;;-5.90;80.80;;;;;;4172225;28;19932;-83
2024/01/18 06:16:10;;;;;;;;;;;-5.90;80.80;;;;;;4169842;28;19938;-82
2024/01/18 06:18:29;;;;;;;;;;;-5.90;80.80;;;;;;4171799;28;19924;-82
2024/01/18 06:20:49;;;;;;;;;;;-5.80;80.90;;;;;;4168996;28;19987;-82
2024/01/18 06:23:08;;;;;;;;;;;-5.80;80.90;;;;;;4162092;28;19959;-81
2024/01/18 06:25:27;;;;;;;;;;;-5.80;81.00;;;;;;4169040;28;20000;-80
2024/01/18 06:27:47;;;;;;;;;;;-5.80;81.10;;;;;;4166908;28;19945;-81
2024/01/18 06:30:10;;;;;;;;;;;-5.80;81.90;;;;;;4168733;28;19928;-81
2024/01/18 06:32:30;;;;;;;;;;;-5.70;82.00;;;;;;4168560;28;19983;-82
2024/01/18 06:34:49;;;;;;;;;;;-5.70;82.00;;;;;;4169724;28;19920;-81
2024/01/18 06:37:08;;;;;;;;;;;-5.70;82.00;;;;;;4168300;28;19979;-81
2024/01/18 06:39:28;;;;;;;;;;;-5.70;81.30;;;;;;4167996;28;19955;-82
2024/01/18 06:41:47;;;;;;;;;;;-5.70;81.30;;;;;;4166485;28;20023;-82
2024/01/18 06:44:06;;;;;;;;;;;-5.60;81.40;;;;;;4183184;28;19987;-81
2024/01/18 06:46:25;;;;;;;;;;;-5.60;81.40;;;;;;4164623;28;20004;-81
2024/01/18 06:48:52;;;;;;;;;;;-5.60;81.30;;;;;;4164732;28;20123;-81
2024/01/18 06:51:14;;;;;;;;;;;-5.60;81.30;;;;;;4165467;28;20172;-81
2024/01/18 06:53:33;;;;;;;;;;;-5.60;82.00;;;;;;4166133;28;19966;-79
2024/01/18 06:55:53;;;;;;;;;;;-5.60;81.20;;;;;;4166321;28;19923;-81
2024/01/18 06:58:12;;;;;;;;;;;-5.60;81.20;;;;;;4160279;28;19944;-81
2024/01/18 07:00:32;;;;;;;;;;;-5.60;81.20;;;;;;4164386;28;19936;-81
2024/01/18 07:02:52;;;;;;;;;;;-5.60;81.20;;;;;;4170099;28;20142;-82
2024/01/18 07:05:11;;;;;;;;;;;-5.60;81.20;;;;;;4166096;28;19963;-81
2024/01/18 07:07:30;;;;;;;;;;;-5.60;81.10;;;;;;4165629;28;20460;-80
2024/01/18 07:09:50;;;;;;;;;;;-5.50;81.20;;;;;;4159902;28;19968;-80
2024/01/18 07:12:09;;;;;;;;;;;-5.50;81.30;;;;;;4170797;28;19932;-82
2024/01/18 07:14:30;;;;;;;;;;;-5.50;81.60;;;;;;4165209;28;20306;-80
2024/01/18 07:16:30;;;;;;;;;;;-5.50;81.80;;;;;;4164252;28;19918;-81
2024/01/18 07:18:31;;;;;;;;;;;-5.40;82.00;;;;;;4164871;28;19923;-82
2024/01/18 07:20:32;;;;;;;;;;;-5.40;82.30;;;;;;4169412;28;20355;-82
2024/01/18 07:22:32;;;;;;;;;;;-5.30;82.30;;;;;;4170549;28;19921;-81
2024/01/18 07:24:36;;;;;;;;;;;-5.30;82.50;;;;;;4180111;28;19984;-82
2024/01/18 07:26:38;;;;;;;;;;;-5.20;82.60;;;;;;4188996;28;20404;-82
2024/01/18 07:28:39;;;;;;;;;;;-5.10;82.90;;;;;;4170180;28;19928;-82
2024/01/18 07:30:39;;;;;;;;;;;-5.00;83.10;;;;;;4170459;28;19917;-81
2024/01/18 07:32:40;;;;;;;;;;;-4.90;83.00;;;;;;4152763;28;20392;-81
2024/01/18 07:34:41;;;;;;;;;;;-4.90;83.00;;;;;;4167123;28;20542;-82
2024/01/18 07:36:43;;;;;;;;;;;-4.80;83.70;;;;;;4166972;28;19925;-80
2024/01/18 07:38:43;;;;;;;;;;;-4.70;83.10;;;;;;4167685;28;20555;-80
2024/01/18 07:40:44;;;;;;;;;;;-4.70;83.10;;;;;;4165925;28;19913;-81
2024/01/18 07:42:45;;;;;;;;;;;-4.60;83.10;;;;;;4169935;28;19936;-81
2024/01/18 07:44:47;;;;;;;;;;;-4.50;83.10;;;;;;4171910;28;19913;-81
2024/01/18 07:46:47;;;;;;;;;;;-4.50;83.00;;;;;;4168009;28;20063;-82
2024/01/18 07:48:48;;;;;;;;;;;-4.50;83.00;;;;;;4187108;28;20099;-80
2024/01/18 07:50:50;;;;;;;;;;;-4.40;83.00;;;;;;4172966;28;19921;-80
2024/01/18 07:52:51;;;;;;;;;;;-4.40;83.00;;;;;;4176971;28;19988;-80
2024/01/18 07:54:52;;;;;;;;;;;-4.40;82.80;;;;;;4174469;28;19968;-82
2024/01/18 07:56:53;;;;;;;;;;;-4.30;83.00;;;;;;4173373;28;19999;-83
2024/01/18 07:58:54;;;;;;;;;;;-4.30;82.90;;;;;;4156989;28;19917;-82
2024/01/18 08:00:56;;;;;;;;;;;-4.30;82.90;;;;;;4176755;28;19916;-83
2024/01/18 08:02:57;;;;;;;;;;;-4.20;82.90;;;;;;4172099;28;20012;-81
2024/01/18 08:04:57;;;;;;;;;;;-4.20;82.90;;;;;;4174338;28;19996;-83
2024/01/18 08:07:18;;;;;;;;;;;-4.20;82.80;;;;;;4173491;28;19913;-82
2024/01/18 08:09:22;;;;;;;;;;;-4.10;82.90;;;;;;4169419;28;20028;-82
2024/01/18 08:11:42;;;;;;;;;;;-4.10;82.90;;;;;;4169537;28;19913;-81
2024/01/18 08:14:03;;;;;;;;;;;-4.10;82.90;;;;;;4166958;28;19917;-81
2024/01/18 08:16:23;;;;;;;;;;;-4.10;82.80;;;;;;4163652;28;19921;-81
2024/01/18 08:18:44;;;;;;;;;;;-4.00;82.90;;;;;;4171811;28;19921;-85
2024/01/18 08:21:05;;;;;;;;;;;-4.00;82.90;;;;;;4172956;28;19917;-84
2024/01/18 08:23:23;;;;;;;;;;;-4.00;82.80;;;;;;4173734;28;19923;-85
2024/01/18 08:25:44;;;;;;;;;;;-3.90;82.90;;;;;;4171490;28;19921;-83
2024/01/18 08:28:05;;;;;;;;;;;-3.90;82.90;;;;;;4170402;28;20149;-81
2024/01/18 08:30:25;;;;;;;;;;;-3.90;82.80;;;;;;4169459;28;19917;-82
2024/01/18 08:32:46;;;;;;;;;;;-3.90;82.80;;;;;;4172390;28;20014;-81
2024/01/18 08:35:07;;;;;;;;;;;-3.80;82.90;;;;;;4170351;28;19916;-80
2024/01/18 08:37:27;;;;;;;;;;;-3.80;82.90;;;;;;4173681;28;20640;-81
2024/01/18 08:39:48;;;;;;;;;;;-3.70;83.00;;;;;;4167085;28;20476;-82
2024/01/18 08:42:09;;;;;;;;;;;-3.70;82.90;;;;;;4166384;28;19979;-81
2024/01/18 08:44:29;;;;;;;;;;;-3.70;82.90;;;;;;4171376;28;19917;-81
2024/01/18 08:46:50;;;;;;;;;;;-3.60;83.00;;;;;;4170770;28;19920;-80
2024/01/18 08:49:10;;;;;;;;;;;-3.60;83.00;;;;;;4170404;28;19921;-81
2024/01/18 08:51:31;;;;;;;;;;;-3.50;83.00;;;;;;4180851;28;20661;-80
2024/01/18 08:53:51;;;;;;;;;;;-3.50;83.10;;;;;;4175185;28;19963;-80
2024/01/18 08:56:12;;;;;;;;;;;-3.50;83.00;;;;;;4171213;28;20011;-80
2024/01/18 08:58:33;;;;;;;;;;;-3.40;83.20;;;;;;4167541;28;19971;-81
2024/01/18 09:00:38;;;;;;;;;;;-3.40;83.90;;;;;;4154850;28;20371;-81
2024/01/18 09:03:00;;;;;;;;;;;-3.30;83.20;;;;;;4168636;28;20007;-81
2024/01/18 09:05:20;;;;;;;;;;;-3.30;83.20;;;;;;4169070;28;20015;-80
2024/01/18 09:07:41;;;;;;;;;;;-3.30;83.20;;;;;;4167948;28;19916;-82
2024/01/18 09:10:02;;;;;;;;;;;-3.20;83.30;;;;;;4165427;28;19975;-82
2024/01/18 09:12:23;;;;;;;;;;;-3.20;83.20;;;;;;4170114;28;19921;-81
2024/01/18 09:14:45;;;;;;;;;;;-3.20;83.20;;;;;;4172364;28;19963;-81
2024/01/18 09:17:05;;;;;;;;;;;-3.10;83.20;;;;;;4182459;28;19924;-82
2024/01/18 09:19:26;;;;;;;;;;;-3.10;83.20;;;;;;4168138;28;19917;-81
2024/01/18 09:21:46;;;;;;;;;;;-3.10;83.10;;;;;;4169581;28;19917;-80
2024/01/18 09:24:07;;;;;;;;;;;-3.00;83.10;;;;;;4165063;28;19943;-80
2024/01/18 09:26:28;;;;;;;;;;;-3.00;83.20;;;;;;4168814;28;19920;-80
2024/01/18 09:28:49;;;;;;;;;;;-2.90;83.20;;;;;;4168976;28;20509;-80
2024/01/18 09:31:10;;;;;;;;;;;-2.90;83.30;;;;;;4165256;28;19920;-80
2024/01/18 09:33:30;;;;;;;;;;;-2.80;83.30;;;;;;4165486;28;19917;-80
2024/01/18 09:35:52;;;;;;;;;;;-2.80;83.30;;;;;;4163920;28;20422;-80
2024/01/18 09:38:12;;;;;;;;;;;-2.70;83.50;;;;;;4163908;28;19964;-80
2024/01/18 09:40:33;;;;;;;;;;;-2.70;83.50;;;;;;4166632;28;19927;-81
2024/01/18 09:42:55;;;;;;;;;;;-2.60;83.60;;;;;;4167692;28;19917;-80
2024/01/18 09:45:19;;;;;;;;;;;-2.50;83.70;;;;;;4162559;28;19917;-82
2024/01/18 09:47:43;;;;;;;;;;;-2.50;83.80;;;;;;4166627;28;19925;-80
2024/01/18 09:50:04;;;;;;;;;;;-2.40;83.90;;;;;;4165112;28;20011;-80
2024/01/18 09:52:25;;;;;;;;;;;-2.30;83.90;;;;;;4161542;28;19917;-81
2024/01/18 09:54:46;;;;;;;;;;;-2.20;84.10;;;;;;4163128;28;19921;-81
2024/01/18 09:57:06;;;;;;;;;;;-2.20;84.20;;;;;;4162998;28;20308;-82
2024/01/18 09:59:27;;;;;;;;;;;-2.10;84.20;;;;;;4165169;28;19916;-82
2024/01/18 10:01:48;;;;;;;;;;;-2.00;84.40;;;;;;4160377;28;19935;-89
2024/01/18 10:04:12;;;;;;;;;;;-1.90;84.50;;;;;;4161894;28;19996;-80
2024/01/18 10:06:32;;;;;;;;;;;-1.90;84.60;;;;;;4163885;28;20256;-81
2024/01/18 10:08:53;;;;;;;;;;;-1.80;84.70;;;;;;4163411;28;20060;-80
2024/01/18 10:11:13;;;;;;;;;;;-1.80;84.80;;;;;;4164086;28;19928;-81
2024/01/18 10:13:47;;;;;;;;;;;-1.70;84.90;;;;;;4161885;28;19928;-81
2024/01/18 10:16:06;;;;;;;;;;;-1.60;85.00;;;;;;4166576;28;19932;-82
2024/01/18 10:18:25;;;;;;;;;;;-1.50;85.10;;;;;;4167143;28;19928;-81
2024/01/18 10:20:46;;;;;;;;;;;-1.50;85.00;;;;;;4178115;28;20358;-82
2024/01/18 10:23:05;;;;;;;;;;;-1.40;85.00;;;;;;4167684;28;19920;-81
2024/01/18 10:25:25;;;;;;;;;;;-1.40;85.00;;;;;;4170194;28;19943;-80
2024/01/18 10:27:44;;;;;;;;;;;-1.30;85.20;;;;;;4168694;28;19920;-82
2024/01/18 10:30:04;;;;;;;;;;;-1.30;85.10;;;;;;4166840;28;20059;-81
2024/01/18 10:32:23;;;;;;;;;;;-1.20;85.00;;;;;;4164923;28;19959;-82
2024/01/18 10:34:42;;;;;;;;;;;-1.20;84.90;;;;;;4164831;28;19928;-82
2024/01/18 10:37:01;;;;;;;;;;;-1.10;84.80;;;;;;4165738;28;19970;-81
2024/01/18 10:39:21;;;;;;;;;;;-1.10;84.70;;;;;;4166402;28;19924;-81
2024/01/18 10:41:40;;;;;;;;;;;-1.00;85.40;;;;;;4169681;28;19948;-81
2024/01/18 10:43:59;;;;;;;;;;;-1.00;84.60;;;;;;4166903;28;19923;-80
2024/01/18 10:46:19;;;;;;;;;;;-0.90;85.30;;;;;;4168729;28;19963;-82
2024/01/18 10:48:38;;;;;;;;;;;-0.90;84.40;;;;;;4175464;28;19967;-81
2024/01/18 10:50:58;;;;;;;;;;;-0.80;85.10;;;;;;4178540;28;20379;-80
2024/01/18 10:53:18;;;;;;;;;;;-0.80;84.30;;;;;;4166468;28;19938;-81
2024/01/18 10:55:37;;;;;;;;;;;-0.70;84.20;;;;;;4164282;28;20405;-82
2024/01/18 10:57:56;;;;;;;;;;;-0.70;84.20;;;;;;4178331;28;19959;-82
2024/01/18 11:00:16;;;;;;;;;;;-0.60;84.20;;;;;;4165113;28;20480;-80
2024/01/18 11:02:39;;;;;;;;;;;-0.60;84.20;;;;;;4167456;28;19920;-81
2024/01/18 11:04:59;;;;;;;;;;;-0.50;84.20;;;;;;4165135;28;19924;-81
2024/01/18 11:07:19;;;;;;;;;;;-0.40;84.20;;;;;;4169123;28;19963;-81
2024/01/18 11:09:39;;;;;;;;;;;-0.40;84.80;;;;;;4166908;28;19926;-81
2024/01/18 11:11:59;;;;;;;;;;;-0.40;84.70;;;;;;4169872;28;19940;-81
2024/01/18 11:14:18;;;;;;;;;;;-0.30;84.60;;;;;;4168508;28;19954;-82
2024/01/18 11:16:38;;;;;;;;;;;-0.30;83.60;;;;;;4165759;28;19923;-81
2024/01/18 11:18:59;;;;;;;;;;;-0.20;83.60;;;;;;4167016;28;19978;-81
2024/01/18 11:21:19;;;;;;;;;;;-0.20;83.40;;;;;;4174552;28;19924;-81
2024/01/18 11:23:39;;;;;;;;;;;-0.20;83.20;;;;;;4172224;28;19920;-81
2024/01/18 11:25:58;;;;;;;;;;;-0.10;83.00;;;;;;4172137;28;19924;-81
2024/01/18 11:28:21;;;;;;;;;;;-0.10;82.80;;;;;;4172071;28;19939;-82
2024/01/18 11:30:40;;;;;;;;;;;-0.10;83.50;;;;;;4170178;28;20122;-82
2024/01/18 11:33:00;;;;;;;;;;;-0.10;81.70;;;;;;4175495;28;20335;-82
2024/01/18 11:35:19;;;;;;;;;;;-0.10;82.20;;;;;;4176148;28;20373;-81
2024/01/18 11:37:38;;;;;;;;;;;-0.10;82.20;;;;;;4169395;28;19932;-83
2024/01/18 11:39:59;;;;;;;;;;;-0.10;81.10;;;;;;4171901;28;19928;-83
2024/01/18 11:42:19;;;;;;;;;;;0.00;80.70;;;;;;4169009;28;20417;-83
2024/01/18 11:44:47;;;;;;;;;;;0.00;80.50;;;;;;4165133;28;20417;-82
2024/01/18 11:47:06;;;;;;;;;;;0.00;80.40;;;;;;4166242;28;20033;-83
2024/01/18 11:49:26;;;;;;;;;;;0.00;80.60;;;;;;4183746;28;19919;-82
2024/01/18 11:51:46;;;;;;;;;;;0.30;80.90;;;;;;4169144;28;20562;-82
2024/01/18 11:54:05;;;;;;;;;;;0.10;80.60;;;;;;4171771;28;19927;-82
2024/01/18 11:56:25;;;;;;;;;;;0.10;81.10;;;;;;4184745;28;19977;-83
2024/01/18 11:58:44;;;;;;;;;;;0.10;81.10;;;;;;4169461;28;20014;-81
2024/01/18 12:01:04;;;;;;;;;;;0.20;80.50;;;;;;4170858;28;20290;-82
2024/01/18 12:03:24;;;;;;;;;;;0.20;81.20;;;;;;4165003;28;20388;-83
2024/01/18 12:05:47;;;;;;;;;;;0.20;80.40;;;;;;4169953;28;19928;-82
2024/01/18 12:08:07;;;;;;;;;;;0.20;79.90;;;;;;4170833;28;19928;-81
2024/01/18 12:10:26;;;;;;;;;;;0.20;80.00;;;;;;4167347;28;19974;-83
2024/01/18 12:12:45;;;;;;;;;;;0.30;80.80;;;;;;4159706;28;20023;-82
2024/01/18 12:15:05;;;;;;;;;;;0.40;79.90;;;;;;4165474;28;19943;-82
2024/01/18 12:17:24;;;;;;;;;;;0.30;79.90;;;;;;4182029;28;19934;-82
2024/01/18 12:19:45;;;;;;;;;;;0.30;79.70;;;;;;4168899;28;20286;-82
2024/01/18 12:22:17;;;;;;;;;;;0.30;79.60;;;;;;4165024;28;20357;-82
2024/01/18 12:24:37;;;;;;;;;;;0.30;79.40;;;;;;4163747;28;20174;-82
2024/01/18 12:26:56;;;;;;;;;;;0.50;79.20;;;;;;4164964;28;19944;-82
2024/01/18 12:29:15;;;;;;;;;;;0.40;78.30;;;;;;4162281;28;19928;-82
2024/01/18 12:31:35;;;;;;;;;;;0.40;78.40;;;;;;4163018;28;20173;-83
2024/01/18 12:33:54;;;;;;;;;;;0.40;78.20;;;;;;4163682;28;19970;-83
2024/01/18 12:36:14;;;;;;;;;;;0.40;77.80;;;;;;4165654;28;20003;-83
2024/01/18 12:38:33;;;;;;;;;;;0.30;77.80;;;;;;4170345;28;20294;-82
2024/01/18 12:40:52;;;;;;;;;;;0.40;78.00;;;;;;4166899;28;19924;-83
2024/01/18 12:43:11;;;;;;;;;;;0.30;77.50;;;;;;4166819;28;19978;-83
2024/01/18 12:45:31;;;;;;;;;;;0.40;77.60;;;;;;4165118;28;19943;-82
2024/01/18 12:47:50;;;;;;;;;;;0.40;77.80;;;;;;4163762;28;19928;-82
2024/01/18 12:50:10;;;;;;;;;;;0.40;77.60;;;;;;4161441;28;19919;-82
2024/01/18 12:52:32;;;;;;;;;;;0.40;77.50;;;;;;4167244;28;19927;-83
2024/01/18 12:54:51;;;;;;;;;;;0.40;78.10;;;;;;4167632;28;19955;-89
2024/01/18 12:57:12;;;;;;;;;;;0.40;77.50;;;;;;4167800;28;19943;-82
2024/01/18 12:59:32;;;;;;;;;;;0.40;77.30;;;;;;4167199;28;20016;-82
2024/01/18 13:01:52;;;;;;;;;;;0.40;77.40;;;;;;4169094;28;19971;-82
2024/01/18 13:04:17;;;;;;;;;;;0.40;77.40;;;;;;4166376;28;19928;-82
2024/01/18 13:06:37;;;;;;;;;;;0.40;77.40;;;;;;4166844;28;19963;-82
2024/01/18 13:08:56;;;;;;;;;;;0.40;77.30;;;;;;4164362;28;19928;-82
2024/01/18 13:11:16;;;;;;;;;;;0.40;77.30;;;;;;4166559;28;19971;-82
2024/01/18 13:13:35;;;;;;;;;;;0.40;77.50;;;;;;4166116;28;19919;-82
2024/01/18 13:15:57;;;;;;;;;;;0.50;77.40;;;;;;4177737;28;19931;-81
2024/01/18 13:18:17;;;;;;;;;;;0.40;77.40;;;;;;4167220;28;19919;-82
2024/01/18 13:20:36;;;;;;;;;;;0.40;77.20;;;;;;4170080;28;19919;-82
2024/01/18 13:22:56;;;;;;;;;;;0.50;77.10;;;;;;4183153;28;19958;-83